sensor_id;sensor_type;location;lat;lon;timestamp;pressure;altitude;pressure_sealevel;temperature;humidity
65394;BME280;52002;49.760;6.512;2023-04-27T16:34:36;99901.42;;;19.91;40.99
65394;BME280;52002;49.760;6.512;2023-04-27T16:37:02;99892.38;;;19.56;39.76
65394;BME280;52002;49.760;6.512;2023-04-27T16:39:27;99887.02;;;19.21;39.66
65394;BME280;52002;49.760;6.512;2023-04-27T16:41:53;99881.00;;;18.92;39.64
65394;BME280;52002;49.760;6.512;2023-04-27T16:44:18;99880.58;;;18.65;39.81
65394;BME280;52002;49.760;6.512;2023-04-27T16:46:44;99884.05;;;18.45;39.87
65394;BME280;52002;49.760;6.512;2023-04-27T16:49:09;99880.91;;;18.28;40.08
65394;BME280;52002;49.760;6.512;2023-04-27T16:51:35;99884.67;;;18.17;40.27
65394;BME280;52002;49.760;6.512;2023-04-27T16:54:00;99878.48;;;18.09;40.51
65394;BME280;52002;49.760;6.512;2023-04-27T16:56:32;99876.69;;;18.02;40.51
65394;BME280;52002;49.760;6.512;2023-04-27T16:58:58;99871.21;;;17.95;41.02
65394;BME280;52002;49.760;6.512;2023-04-27T17:01:23;99871.77;;;17.86;40.93
65394;BME280;52002;49.760;6.512;2023-04-27T17:03:54;99876.08;;;17.76;41.23
65394;BME280;52002;49.760;6.512;2023-04-27T17:06:22;99873.02;;;17.66;41.60
65394;BME280;52002;49.760;6.512;2023-04-27T17:08:49;99869.14;;;17.54;41.68
65394;BME280;52002;49.760;6.512;2023-04-27T17:11:15;99866.15;;;17.43;41.86
65394;BME280;52002;49.760;6.512;2023-04-27T17:13:41;99862.52;;;17.31;41.96
65394;BME280;52002;49.760;6.512;2023-04-27T17:16:06;99867.90;;;17.19;42.11
65394;BME280;52002;49.760;6.512;2023-04-27T17:18:35;99866.80;;;17.08;42.12
65394;BME280;52002;49.760;6.512;2023-04-27T17:21:01;99857.65;;;16.96;42.40
65394;BME280;52002;49.760;6.512;2023-04-27T17:23:26;99851.56;;;16.85;42.85
65394;BME280;52002;49.760;6.512;2023-04-27T17:25:52;99848.86;;;16.76;43.13
65394;BME280;52002;49.760;6.512;2023-04-27T17:28:17;99846.41;;;16.68;43.49
65394;BME280;52002;49.760;6.512;2023-04-27T17:30:43;99847.96;;;16.62;43.44
65394;BME280;52002;49.760;6.512;2023-04-27T17:33:08;99852.73;;;16.57;43.32
65394;BME280;52002;49.760;6.512;2023-04-27T17:35:34;99850.84;;;16.53;43.24
65394;BME280;52002;49.760;6.512;2023-04-27T17:38:00;99853.48;;;16.52;43.34
65394;BME280;52002;49.760;6.512;2023-04-27T17:40:25;99853.88;;;16.51;43.30
65394;BME280;52002;49.760;6.512;2023-04-27T17:42:51;99857.06;;;16.49;43.46
65394;BME280;52002;49.760;6.512;2023-04-27T17:45:20;99856.11;;;16.43;43.55
65394;BME280;52002;49.760;6.512;2023-04-27T17:47:47;99855.09;;;16.36;43.84
65394;BME280;52002;49.760;6.512;2023-04-27T17:50:12;99851.86;;;16.30;44.16
65394;BME280;52002;49.760;6.512;2023-04-27T17:52:39;99850.81;;;16.25;44.48
65394;BME280;52002;49.760;6.512;2023-04-27T17:55:05;99846.44;;;16.19;44.77
65394;BME280;52002;49.760;6.512;2023-04-27T17:57:31;99847.45;;;16.14;44.97
65394;BME280;52002;49.760;6.512;2023-04-27T17:59:57;99849.39;;;16.08;45.94
65394;BME280;52002;49.760;6.512;2023-04-27T18:02:22;99847.65;;;16.01;46.63
65394;BME280;52002;49.760;6.512;2023-04-27T18:04:48;99844.52;;;15.94;47.14
65394;BME280;52002;49.760;6.512;2023-04-27T18:07:13;99845.36;;;15.86;48.10
65394;BME280;52002;49.760;6.512;2023-04-27T18:09:39;99833.08;;;15.77;48.59
65394;BME280;52002;49.760;6.512;2023-04-27T18:12:04;99827.48;;;15.68;48.68
65394;BME280;52002;49.760;6.512;2023-04-27T18:14:35;99825.40;;;15.56;49.19
65394;BME280;52002;49.760;6.512;2023-04-27T18:17:00;99826.55;;;15.43;49.47
65394;BME280;52002;49.760;6.512;2023-04-27T18:19:25;99825.23;;;15.28;49.75
65394;BME280;52002;49.760;6.512;2023-04-27T18:21:51;99820.27;;;15.13;50.27
65394;BME280;52002;49.760;6.512;2023-04-27T18:24:16;99821.67;;;14.99;50.51
65394;BME280;52002;49.760;6.512;2023-04-27T18:26:41;99823.88;;;14.87;50.77
65394;BME280;52002;49.760;6.512;2023-04-27T18:29:07;99818.13;;;14.76;51.36
65394;BME280;52002;49.760;6.512;2023-04-27T18:31:32;99821.70;;;14.64;51.68
65394;BME280;52002;49.760;6.512;2023-04-27T18:33:59;99819.23;;;14.53;52.40
65394;BME280;52002;49.760;6.512;2023-04-27T18:36:25;99823.33;;;14.42;52.64
65394;BME280;52002;49.760;6.512;2023-04-27T18:38:52;99818.41;;;14.33;53.16
65394;BME280;52002;49.760;6.512;2023-04-27T18:41:17;99819.30;;;14.23;53.39
65394;BME280;52002;49.760;6.512;2023-04-27T18:43:43;99816.14;;;14.14;53.90
65394;BME280;52002;49.760;6.512;2023-04-27T18:46:08;99811.08;;;14.06;54.20
65394;BME280;52002;49.760;6.512;2023-04-27T18:48:34;99807.01;;;13.99;54.41
65394;BME280;52002;49.760;6.512;2023-04-27T18:50:59;99809.46;;;13.92;54.82
65394;BME280;52002;49.760;6.512;2023-04-27T18:53:26;99810.64;;;13.84;55.12
65394;BME280;52002;49.760;6.512;2023-04-27T18:55:51;99816.37;;;13.77;55.11
65394;BME280;52002;49.760;6.512;2023-04-27T18:58:17;99823.41;;;13.72;55.68
65394;BME280;52002;49.760;6.512;2023-04-27T19:00:42;99825.44;;;13.66;56.04
65394;BME280;52002;49.760;6.512;2023-04-27T19:03:08;99828.30;;;13.61;56.25
65394;BME280;52002;49.760;6.512;2023-04-27T19:05:33;99835.19;;;13.57;56.13
65394;BME280;52002;49.760;6.512;2023-04-27T19:07:58;99834.45;;;13.51;56.47
65394;BME280;52002;49.760;6.512;2023-04-27T19:10:25;99836.93;;;13.46;56.71
65394;BME280;52002;49.760;6.512;2023-04-27T19:12:50;99837.73;;;13.42;57.16
65394;BME280;52002;49.760;6.512;2023-04-27T19:15:17;99836.31;;;13.36;57.49
65394;BME280;52002;49.760;6.512;2023-04-27T19:17:42;99837.45;;;13.31;57.45
65394;BME280;52002;49.760;6.512;2023-04-27T19:20:08;99841.54;;;13.28;57.46
65394;BME280;52002;49.760;6.512;2023-04-27T19:22:34;99839.42;;;13.24;57.53
65394;BME280;52002;49.760;6.512;2023-04-27T19:25:02;99839.98;;;13.20;58.01
65394;BME280;52002;49.760;6.512;2023-04-27T19:27:27;99836.73;;;13.16;57.99
65394;BME280;52002;49.760;6.512;2023-04-27T19:29:54;99840.15;;;13.13;58.16
65394;BME280;52002;49.760;6.512;2023-04-27T19:32:21;99841.23;;;13.09;58.20
65394;BME280;52002;49.760;6.512;2023-04-27T19:34:51;99840.94;;;13.07;58.11
65394;BME280;52002;49.760;6.512;2023-04-27T19:37:16;99839.52;;;13.05;58.34
65394;BME280;52002;49.760;6.512;2023-04-27T19:39:42;99846.77;;;13.02;58.58
65394;BME280;52002;49.760;6.512;2023-04-27T19:42:08;99851.27;;;13.00;58.71
65394;BME280;52002;49.760;6.512;2023-04-27T19:44:33;99850.66;;;12.98;58.87
65394;BME280;52002;49.760;6.512;2023-04-27T19:46:58;99845.45;;;12.95;59.03
65394;BME280;52002;49.760;6.512;2023-04-27T19:49:24;99845.52;;;12.92;58.97
65394;BME280;52002;49.760;6.512;2023-04-27T19:51:49;99847.48;;;12.88;59.31
65394;BME280;52002;49.760;6.512;2023-04-27T19:54:15;99847.80;;;12.85;59.27
65394;BME280;52002;49.760;6.512;2023-04-27T19:56:40;99852.23;;;12.83;59.77
65394;BME280;52002;49.760;6.512;2023-04-27T19:59:06;99849.55;;;12.80;59.57
65394;BME280;52002;49.760;6.512;2023-04-27T20:01:31;99849.74;;;12.78;59.80
65394;BME280;52002;49.760;6.512;2023-04-27T20:03:57;99844.55;;;12.75;59.96
65394;BME280;52002;49.760;6.512;2023-04-27T20:06:22;99841.40;;;12.71;59.78
65394;BME280;52002;49.760;6.512;2023-04-27T20:08:48;99836.12;;;12.68;59.85
65394;BME280;52002;49.760;6.512;2023-04-27T20:11:13;99836.95;;;12.65;59.90
65394;BME280;52002;49.760;6.512;2023-04-27T20:13:41;99836.52;;;12.62;60.13
65394;BME280;52002;49.760;6.512;2023-04-27T20:16:07;99839.89;;;12.60;60.46
65394;BME280;52002;49.760;6.512;2023-04-27T20:18:34;99838.56;;;12.59;60.42
65394;BME280;52002;49.760;6.512;2023-04-27T20:21:01;99833.48;;;12.56;60.59
65394;BME280;52002;49.760;6.512;2023-04-27T20:23:27;99834.11;;;12.56;61.00
65394;BME280;52002;49.760;6.512;2023-04-27T20:25:53;99834.23;;;12.56;60.97
65394;BME280;52002;49.760;6.512;2023-04-27T20:28:19;99833.16;;;12.58;61.03
65394;BME280;52002;49.760;6.512;2023-04-27T20:30:44;99829.91;;;12.58;61.24
65394;BME280;52002;49.760;6.512;2023-04-27T20:33:10;99830.41;;;12.60;61.30
65394;BME280;52002;49.760;6.512;2023-04-27T20:35:38;99830.09;;;12.62;61.30
65394;BME280;52002;49.760;6.512;2023-04-27T20:38:03;99834.37;;;12.62;61.32
65394;BME280;52002;49.760;6.512;2023-04-27T20:40:30;99830.04;;;12.63;61.45
65394;BME280;52002;49.760;6.512;2023-04-27T20:42:58;99821.09;;;12.63;61.30
65394;BME280;52002;49.760;6.512;2023-04-27T20:45:25;99818.42;;;12.61;61.49
65394;BME280;52002;49.760;6.512;2023-04-27T20:47:50;99817.16;;;12.57;61.31
65394;BME280;52002;49.760;6.512;2023-04-27T20:50:16;99820.31;;;12.54;61.34
65394;BME280;52002;49.760;6.512;2023-04-27T20:52:42;99822.77;;;12.53;61.44
65394;BME280;52002;49.760;6.512;2023-04-27T20:55:08;99825.66;;;12.51;61.69
65394;BME280;52002;49.760;6.512;2023-04-27T20:57:34;99828.58;;;12.48;61.82
65394;BME280;52002;49.760;6.512;2023-04-27T20:59:59;99824.98;;;12.45;61.95
65394;BME280;52002;49.760;6.512;2023-04-27T21:02:25;99815.34;;;12.41;62.04
65394;BME280;52002;49.760;6.512;2023-04-27T21:04:50;99807.05;;;12.39;62.51
65394;BME280;52002;49.760;6.512;2023-04-27T21:07:16;99806.27;;;12.36;62.58
65394;BME280;52002;49.760;6.512;2023-04-27T21:09:41;99801.88;;;12.34;62.63
65394;BME280;52002;49.760;6.512;2023-04-27T21:12:07;99796.36;;;12.31;62.71
65394;BME280;52002;49.760;6.512;2023-04-27T21:14:33;99795.90;;;12.30;62.90
65394;BME280;52002;49.760;6.512;2023-04-27T21:16:59;99800.17;;;12.30;63.00
65394;BME280;52002;49.760;6.512;2023-04-27T21:19:25;99806.85;;;12.32;63.15
65394;BME280;52002;49.760;6.512;2023-04-27T21:21:52;99808.55;;;12.33;63.30
65394;BME280;52002;49.760;6.512;2023-04-27T21:24:21;99806.67;;;12.32;63.45
65394;BME280;52002;49.760;6.512;2023-04-27T21:26:47;99798.73;;;12.29;63.63
65394;BME280;52002;49.760;6.512;2023-04-27T21:29:13;99792.77;;;12.26;63.82
65394;BME280;52002;49.760;6.512;2023-04-27T21:31:38;99786.17;;;12.24;63.92
65394;BME280;52002;49.760;6.512;2023-04-27T21:34:03;99781.60;;;12.22;63.72
65394;BME280;52002;49.760;6.512;2023-04-27T21:36:29;99788.99;;;12.21;63.90
65394;BME280;52002;49.760;6.512;2023-04-27T21:38:54;99794.21;;;12.19;64.13
65394;BME280;52002;49.760;6.512;2023-04-27T21:41:20;99801.56;;;12.18;64.06
65394;BME280;52002;49.760;6.512;2023-04-27T21:43:45;99802.81;;;12.18;64.06
65394;BME280;52002;49.760;6.512;2023-04-27T21:46:11;99801.69;;;12.17;64.30
65394;BME280;52002;49.760;6.512;2023-04-27T21:48:36;99799.11;;;12.16;64.67
65394;BME280;52002;49.760;6.512;2023-04-27T21:51:02;99789.16;;;12.18;65.02
65394;BME280;52002;49.760;6.512;2023-04-27T21:53:30;99780.46;;;12.19;65.27
65394;BME280;52002;49.760;6.512;2023-04-27T21:55:56;99778.94;;;12.20;65.39
65394;BME280;52002;49.760;6.512;2023-04-27T21:58:21;99780.76;;;12.21;65.90
65394;BME280;52002;49.760;6.512;2023-04-27T22:00:46;99790.56;;;12.21;65.83
65394;BME280;52002;49.760;6.512;2023-04-27T22:03:12;99801.46;;;12.21;66.24
65394;BME280;52002;49.760;6.512;2023-04-27T22:05:38;99808.61;;;12.19;66.52
65394;BME280;52002;49.760;6.512;2023-04-27T22:08:04;99810.43;;;12.15;66.75
65394;BME280;52002;49.760;6.512;2023-04-27T22:10:30;99810.95;;;12.12;66.88
65394;BME280;52002;49.760;6.512;2023-04-27T22:12:55;99801.25;;;12.09;67.14
65394;BME280;52002;49.760;6.512;2023-04-27T22:15:21;99793.33;;;12.10;67.38
65394;BME280;52002;49.760;6.512;2023-04-27T22:17:46;99794.67;;;12.10;67.58
65394;BME280;52002;49.760;6.512;2023-04-27T22:20:11;99792.69;;;12.09;67.56
65394;BME280;52002;49.760;6.512;2023-04-27T22:22:39;99792.32;;;12.09;68.10
65394;BME280;52002;49.760;6.512;2023-04-27T22:25:05;99795.65;;;12.08;68.25
65394;BME280;52002;49.760;6.512;2023-04-27T22:27:32;99794.27;;;12.07;68.40
65394;BME280;52002;49.760;6.512;2023-04-27T22:29:57;99799.07;;;12.06;68.37
65394;BME280;52002;49.760;6.512;2023-04-27T22:32:23;99807.27;;;12.02;68.28
65394;BME280;52002;49.760;6.512;2023-04-27T22:34:49;99802.86;;;12.00;68.58
65394;BME280;52002;49.760;6.512;2023-04-27T22:37:14;99800.84;;;11.98;68.92
65394;BME280;52002;49.760;6.512;2023-04-27T22:39:40;99798.96;;;11.94;69.16
65394;BME280;52002;49.760;6.512;2023-04-27T22:42:05;99795.98;;;11.91;69.92
65394;BME280;52002;49.760;6.512;2023-04-27T22:44:30;99790.95;;;11.92;70.12
65394;BME280;52002;49.760;6.512;2023-04-27T22:46:56;99783.63;;;11.92;70.17
65394;BME280;52002;49.760;6.512;2023-04-27T22:49:21;99780.89;;;11.91;70.21
65394;BME280;52002;49.760;6.512;2023-04-27T22:51:48;99773.56;;;11.87;70.53
65394;BME280;52002;49.760;6.512;2023-04-27T22:54:13;99777.69;;;11.85;70.79
65394;BME280;52002;49.760;6.512;2023-04-27T22:56:39;99776.09;;;11.83;70.55
65394;BME280;52002;49.760;6.512;2023-04-27T22:59:05;99778.32;;;11.82;70.63
65394;BME280;52002;49.760;6.512;2023-04-27T23:01:30;99778.80;;;11.81;70.57
65394;BME280;52002;49.760;6.512;2023-04-27T23:03:56;99778.49;;;11.80;70.67
65394;BME280;52002;49.760;6.512;2023-04-27T23:06:21;99773.48;;;11.82;70.75
65394;BME280;52002;49.760;6.512;2023-04-27T23:08:46;99772.41;;;11.84;70.79
65394;BME280;52002;49.760;6.512;2023-04-27T23:11:12;99771.38;;;11.86;70.85
65394;BME280;52002;49.760;6.512;2023-04-27T23:13:38;99767.55;;;11.85;70.87
65394;BME280;52002;49.760;6.512;2023-04-27T23:16:05;99760.70;;;11.82;70.75
65394;BME280;52002;49.760;6.512;2023-04-27T23:18:34;99761.80;;;11.79;71.18
65394;BME280;52002;49.760;6.512;2023-04-27T23:20:59;99763.38;;;11.78;71.17
65394;BME280;52002;49.760;6.512;2023-04-27T23:23:24;99758.55;;;11.78;71.32
65394;BME280;52002;49.760;6.512;2023-04-27T23:25:50;99751.87;;;11.79;71.15
65394;BME280;52002;49.760;6.512;2023-04-27T23:28:15;99746.40;;;11.80;71.07
65394;BME280;52002;49.760;6.512;2023-04-27T23:30:40;99743.16;;;11.80;71.09
65394;BME280;52002;49.760;6.512;2023-04-27T23:33:06;99748.54;;;11.80;71.28
65394;BME280;52002;49.760;6.512;2023-04-27T23:35:31;99746.61;;;11.80;71.41
65394;BME280;52002;49.760;6.512;2023-04-27T23:37:57;99743.45;;;11.79;71.36
65394;BME280;52002;49.760;6.512;2023-04-27T23:40:22;99740.54;;;11.80;71.57
65394;BME280;52002;49.760;6.512;2023-04-27T23:42:48;99729.95;;;11.81;71.58
65394;BME280;52002;49.760;6.512;2023-04-27T23:45:13;99725.64;;;11.81;71.44
65394;BME280;52002;49.760;6.512;2023-04-27T23:47:38;99723.19;;;11.82;71.39
65394;BME280;52002;49.760;6.512;2023-04-27T23:50:04;99723.55;;;11.82;71.29
65394;BME280;52002;49.760;6.512;2023-04-27T23:52:30;99717.86;;;11.82;71.32
65394;BME280;52002;49.760;6.512;2023-04-27T23:54:58;99710.77;;;11.82;71.49
65394;BME280;52002;49.760;6.512;2023-04-27T23:57:24;99701.64;;;11.80;71.42
65394;BME280;52002;49.760;6.512;2023-04-27T23:59:49;99696.08;;;11.79;71.78
